Time;durP1;ratioP1;P1;durP2;ratioP2;P2;SDS_P1;SDS_P2;PMS_P1;PMS_P2;Temp;Humidity;BMP_temperature;BMP_pressure;BME280_temperature;BME280_humidity;BME280_pressure;Samples;Min_cycle;Max_cycle;Signal;HPM_P1;HPM_P2
2023/04/05 00:01:21;;;;;;;0.85;0.80;;;;;;;3.69;72.66;101835.66;5027853;28;20033;-60
2023/04/05 00:03:51;;;;;;;0.70;0.70;;;;;;;3.68;72.04;101842.84;5027601;28;20046;-56
2023/04/05 00:06:17;;;;;;;0.95;0.75;;;;;;;3.60;72.01;101845.31;5028387;28;20033;-59
2023/04/05 00:08:48;;;;;;;0.85;0.85;;;;;;;3.64;72.83;101841.81;5030409;28;20104;-58
2023/04/05 00:11:15;;;;;;;2.33;0.93;;;;;;;3.71;72.84;101846.03;5012906;28;20033;-60
2023/04/05 00:13:41;;;;;;;2.17;1.02;;;;;;;3.68;72.44;101848.16;5027762;28;20144;-59
2023/04/05 00:16:06;;;;;;;2.63;1.10;;;;;;;3.64;72.66;101839.13;5029329;28;20578;-58
2023/04/05 00:18:33;;;;;;;4.10;0.85;;;;;;;3.73;72.76;101839.34;5029431;28;20032;-61
2023/04/05 00:20:58;;;;;;;0.47;0.45;;;;;;;3.64;73.12;101839.13;5011031;28;20045;-61
2023/04/05 00:23:25;;;;;;;0.30;0.30;;;;;;;3.44;73.10;101839.31;5020496;28;20136;-58
2023/04/05 00:25:51;;;;;;;0.43;0.43;;;;;;;3.43;74.00;101835.03;5028715;28;20064;-60
2023/04/05 00:28:16;;;;;;;0.50;0.50;;;;;;;3.45;74.23;101838.22;5024632;28;20033;-61
2023/04/05 00:30:42;;;;;;;1.13;0.70;;;;;;;3.36;74.39;101834.56;5011455;28;20168;-59
2023/04/05 00:33:07;;;;;;;1.33;0.88;;;;;;;3.29;74.32;101839.41;5027586;28;20036;-59
2023/04/05 00:35:33;;;;;;;0.60;0.60;;;;;;;3.47;73.60;101836.09;5024176;28;20034;-60
2023/04/05 00:37:58;;;;;;;0.32;0.32;;;;;;;3.47;73.53;101832.63;5024093;28;20036;-60
2023/04/05 00:40:24;;;;;;;0.75;0.55;;;;;;;3.26;74.60;101839.97;5028269;28;20021;-59
2023/04/05 00:42:49;;;;;;;2.00;1.30;;;;;;;3.36;74.72;101839.09;5011450;28;20087;-61
2023/04/05 00:45:15;;;;;;;1.15;0.80;;;;;;;3.12;75.95;101840.84;5006296;28;20040;-60
2023/04/05 00:47:41;;;;;;;0.43;0.43;;;;;;;3.17;75.80;101838.97;5018656;28;20029;-60
2023/04/05 00:50:09;;;;;;;0.40;0.40;;;;;;;3.20;75.52;101834.94;5027775;28;20082;-61
2023/04/05 00:52:36;;;;;;;0.40;0.40;;;;;;;3.37;75.07;101836.16;5027587;28;20139;-60
2023/04/05 00:55:06;;;;;;;0.40;0.40;;;;;;;3.17;75.01;101836.31;5008461;28;20639;-57
2023/04/05 00:57:33;;;;;;;0.70;0.70;;;;;;;3.14;75.41;101825.41;5009044;28;20037;-60
2023/04/05 01:00:00;;;;;;;1.80;0.77;;;;;;;3.33;75.38;101826.34;5022876;28;20029;-58
2023/04/05 01:02:32;;;;;;;3.17;0.40;;;;;;;3.35;74.63;101827.66;5008911;28;20033;-59
2023/04/05 01:05:20;;;;;;;0.40;0.40;;;;;;;3.48;74.43;101816.38;5009745;28;20052;-60
2023/04/05 01:07:55;;;;;;;1.00;1.00;;;;;;;3.32;75.33;101816.75;5025798;28;20065;-57
2023/04/05 01:10:27;;;;;;;1.40;0.47;;;;;;;3.41;75.02;101815.91;5031319;28;20107;-60
2023/04/05 01:12:53;;;;;;;1.20;0.40;;;;;;;3.49;75.03;101817.16;5031896;28;20029;-61
2023/04/05 01:15:18;;;;;;;1.02;0.70;;;;;;;3.37;75.39;101817.53;5009134;28;20153;-60
2023/04/05 01:17:45;;;;;;;0.40;0.40;;;;;;;3.41;75.55;101823.88;5031676;28;20041;-60
2023/04/05 01:20:11;;;;;;;0.35;0.35;;;;;;;3.36;75.27;101813.28;5032296;28;20037;-57
2023/04/05 01:22:43;;;;;;;1.63;1.23;;;;;;;3.15;76.25;101817.16;5013032;28;20030;-60
2023/04/05 01:25:33;;;;;;;0.13;0.13;;;;;;;3.35;75.81;101818.88;5029927;28;20435;-58
2023/04/05 01:28:23;;;;;;;0.50;0.50;;;;;;;3.22;75.82;101812.31;4998948;28;20050;-61
2023/04/05 01:31:33;;;;;;;0.60;0.60;;;;;;;3.35;75.91;101805.56;5012303;28;20037;-58
2023/04/05 01:34:07;;;;;;;0.30;0.30;;;;;;;3.38;75.84;101811.13;5025660;28;20743;-61
2023/04/05 01:36:42;;;;;;;0.30;0.30;;;;;;;3.28;75.58;101805.09;5020677;28;20041;-59
2023/04/05 01:39:11;;;;;;;1.98;0.93;;;;;;;3.20;75.70;101798.50;5014020;28;20438;-57
2023/04/05 01:41:40;;;;;;;0.50;0.50;;;;;;;3.38;75.24;101800.50;5022286;28;20396;-61
2023/04/05 01:44:06;;;;;;;0.40;0.40;;;;;;;3.38;74.78;101795.16;5013686;28;20045;-59
2023/04/05 01:46:32;;;;;;;0.43;0.43;;;;;;;3.19;75.27;101780.94;5031251;28;20032;-60
2023/04/05 01:48:57;;;;;;;0.25;0.25;;;;;;;3.08;75.62;101775.97;5029771;28;20032;-60
2023/04/05 01:51:22;;;;;;;0.50;0.50;;;;;;;2.79;76.62;101780.41;5012153;28;20026;-56
2023/04/05 01:53:48;;;;;;;0.65;0.65;;;;;;;2.87;77.52;101777.94;5043560;22;20045;-69
2023/04/05 01:56:13;;;;;;;1.48;0.80;;;;;;;2.86;77.01;101778.22;5016152;28;20494;-68
2023/04/05 01:58:59;;;;;;;0.65;0.65;;;;;;;2.90;77.21;101768.63;5019210;28;20026;-68
2023/04/05 02:01:25;;;;;;;0.88;0.45;;;;;;;2.83;76.78;101760.94;4920997;28;20514;-67
2023/04/05 02:03:51;;;;;;;0.32;0.32;;;;;;;2.75;77.54;101764.19;4925362;29;20131;-67
2023/04/05 02:06:17;;;;;;;0.57;0.57;;;;;;;2.69;77.58;101760.75;4937872;29;20044;-67
2023/04/05 02:08:42;;;;;;;5.80;0.90;;;;;;;2.53;78.13;101756.63;4934319;29;20068;-67
2023/04/05 02:11:08;;;;;;;0.98;0.60;;;;;;;2.51;77.96;101765.94;4938412;29;20067;-67
2023/04/05 02:13:33;;;;;;;1.38;0.85;;;;;;;2.36;78.88;101763.34;4935924;29;20084;-69
2023/04/05 02:15:59;;;;;;;2.83;0.95;;;;;;;2.57;78.84;101762.19;4937983;29;20057;-68
2023/04/05 02:18:28;;;;;;;0.47;0.47;;;;;;;2.70;78.58;101766.88;4938715;29;20047;-70
2023/04/05 02:21:03;;;;;;;0.25;0.25;;;;;;;2.79;78.11;101761.78;4932877;28;20042;-67
2023/04/05 02:23:30;;;;;;;1.58;0.60;;;;;;;2.78;78.26;101762.84;4938664;28;20699;-67
2023/04/05 02:25:56;;;;;;;0.70;0.70;;;;;;;2.68;78.44;101758.38;4936771;29;20048;-69
2023/04/05 02:28:22;;;;;;;5.72;1.00;;;;;;;2.79;77.80;101759.91;4941845;29;20051;-67
2023/04/05 02:30:51;;;;;;;0.85;0.80;;;;;;;2.67;77.14;101756.81;4913114;29;20054;-66
2023/04/05 02:33:17;;;;;;;0.30;0.30;;;;;;;2.63;77.98;101756.53;4934555;29;20048;-69
2023/04/05 02:35:43;;;;;;;2.55;0.70;;;;;;;2.54;78.69;101750.22;4925459;29;20091;-68
2023/04/05 02:38:09;;;;;;;0.10;0.10;;;;;;;2.51;78.68;101742.81;4949423;28;20109;-67
2023/04/05 02:40:35;;;;;;;0.85;0.85;;;;;;;2.41;78.69;101750.81;4989314;28;20034;-70
2023/04/05 02:43:01;;;;;;;1.38;0.77;;;;;;;2.50;78.33;101745.72;4991961;28;20125;-68
2023/04/05 02:45:27;;;;;;;0.20;0.20;;;;;;;2.53;78.09;101750.50;4994477;28;20034;-67
2023/04/05 02:47:54;;;;;;;1.45;0.70;;;;;;;2.23;79.35;101755.94;5008203;28;20058;-68
2023/04/05 02:50:22;;;;;;;0.35;0.35;;;;;;;2.33;78.93;101742.59;5011418;28;20038;-67
2023/04/05 02:52:49;;;;;;;0.77;0.77;;;;;;;2.39;78.96;101741.53;5008094;28;20041;-68
2023/04/05 02:55:16;;;;;;;2.05;0.43;;;;;;;2.41;78.69;101739.38;4995269;28;20029;-68
2023/04/05 02:57:44;;;;;;;0.50;0.50;;;;;;;2.51;78.02;101747.31;5000117;28;20030;-68
2023/04/05 03:00:35;;;;;;;0.20;0.20;;;;;;;2.46;78.28;101744.66;4999989;28;20030;-70
2023/04/05 03:03:02;;;;;;;0.50;0.50;;;;;;;2.51;78.45;101736.69;4993428;28;20548;-68
2023/04/05 03:05:28;;;;;;;4.90;0.47;;;;;;;2.55;78.44;101743.06;4994164;28;20495;-68
2023/04/05 03:07:56;;;;;;;1.15;0.90;;;;;;;2.57;77.58;101736.41;5014119;28;20041;-69
2023/04/05 03:10:28;;;;;;;1.00;0.57;;;;;;;2.41;78.04;101734.06;5004967;28;20034;-68
2023/04/05 03:12:59;;;;;;;0.25;0.25;;;;;;;2.36;78.48;101737.53;4991524;28;20042;-68
2023/04/05 03:15:27;;;;;;;1.45;0.77;;;;;;;2.36;78.67;101736.78;5005870;28;20026;-68
2023/04/05 03:17:56;;;;;;;2.22;0.77;;;;;;;2.35;78.90;101735.16;4992791;28;20038;-68
2023/04/05 03:20:22;;;;;;;0.22;0.22;;;;;;;2.28;78.55;101732.03;5007545;28;20130;-69
2023/04/05 03:22:49;;;;;;;0.73;0.57;;;;;;;2.21;79.07;101731.50;4991047;28;20598;-68
2023/04/05 03:25:16;;;;;;;0.68;0.68;;;;;;;2.30;79.20;101732.53;4989998;28;20034;-68
2023/04/05 03:27:45;;;;;;;2.05;0.93;;;;;;;2.21;79.55;101731.50;5008005;28;20048;-68
2023/04/05 03:30:14;;;;;;;0.45;0.22;;;;;;;2.23;79.86;101729.38;5007792;28;20033;-69
2023/04/05 03:32:47;;;;;;;0.80;0.57;;;;;;;2.26;79.67;101731.50;5006073;28;20034;-68
2023/04/05 03:35:31;;;;;;;2.75;0.50;;;;;;;2.20;79.38;101738.69;4992877;28;20033;-69
2023/04/05 03:37:57;;;;;;;0.20;0.20;;;;;;;2.21;79.34;101734.94;5007332;28;20042;-71
2023/04/05 03:40:24;;;;;;;0.40;0.40;;;;;;;2.23;79.02;101729.38;5006840;28;20056;-70
2023/04/05 03:42:50;;;;;;;0.25;0.25;;;;;;;2.14;78.63;101733.66;4988952;28;20070;-68
2023/04/05 03:45:16;;;;;;;1.05;0.88;;;;;;;2.11;79.28;101734.22;4991151;28;20064;-69
2023/04/05 03:47:42;;;;;;;0.30;0.30;;;;;;;2.09;79.39;101734.47;4991463;28;20041;-67
2023/04/05 03:50:08;;;;;;;0.38;0.38;;;;;;;2.07;79.01;101731.28;5011060;28;20150;-67
2023/04/05 03:52:33;;;;;;;0.60;0.55;;;;;;;2.04;78.95;101728.38;4990907;28;20026;-68
2023/04/05 03:54:59;;;;;;;0.20;0.20;;;;;;;2.03;79.66;101722.28;5007305;28;20054;-68
2023/04/05 03:57:29;;;;;;;1.48;0.45;;;;;;;2.24;79.13;101725.66;4989734;28;20569;-68
2023/04/05 03:59:57;;;;;;;0.68;0.68;;;;;;;2.10;79.23;101729.97;5004822;28;20391;-69
2023/04/05 04:02:25;;;;;;;0.98;0.45;;;;;;;2.15;78.92;101720.09;4979899;28;20030;-68
2023/04/05 04:04:52;;;;;;;0.30;0.30;;;;;;;2.21;78.59;101732.28;4998470;28;20037;-69
2023/04/05 04:07:17;;;;;;;1.85;0.40;;;;;;;2.07;79.30;101731.28;4991045;28;20030;-69
2023/04/05 04:09:43;;;;;;;0.55;0.40;;;;;;;2.08;79.40;101732.88;5005179;28;20041;-68
2023/04/05 04:12:10;;;;;;;1.35;0.75;;;;;;;2.13;79.52;101726.78;5010627;28;20031;-69
2023/04/05 04:14:43;;;;;;;1.80;0.50;;;;;;;2.02;79.92;101727.84;4993549;28;20056;-68
2023/04/05 04:17:34;;;;;;;0.40;0.40;;;;;;;2.04;79.24;101723.06;4994125;28;20026;-68
2023/04/05 04:20:20;;;;;;;0.47;0.47;;;;;;;2.05;79.17;101722.00;4986476;28;20026;-68
2023/04/05 04:23:09;;;;;;;0.38;0.38;;;;;;;2.10;79.54;101724.63;4984796;28;20073;-68
2023/04/05 04:26:01;;;;;;;0.30;0.30;;;;;;;2.05;79.44;101712.19;5010029;28;20132;-69
2023/04/05 04:28:48;;;;;;;0.68;0.68;;;;;;;2.09;79.43;101723.06;5001421;28;20066;-68
2023/04/05 04:31:23;;;;;;;0.30;0.30;;;;;;;2.02;79.33;101720.69;4972857;28;20030;-67
2023/04/05 04:34:12;;;;;;;0.88;0.88;;;;;;;2.00;79.35;101716.69;4990766;28;20058;-69
2023/04/05 04:36:59;;;;;;;0.85;0.52;;;;;;;1.78;79.83;101723.13;4981308;28;20030;-68
2023/04/05 04:39:47;;;;;;;0.30;0.30;;;;;;;1.81;80.29;101719.97;4987020;28;20049;-68
2023/04/05 04:42:37;;;;;;;0.63;0.63;;;;;;;1.95;80.37;101714.88;4989838;28;20026;-68
2023/04/05 04:45:33;;;;;;;0.55;0.55;;;;;;;1.92;79.69;101707.44;5002110;28;20104;-68
2023/04/05 04:48:19;;;;;;;0.52;0.52;;;;;;;1.89;80.03;101713.31;5003846;28;20034;-69
2023/04/05 04:50:56;;;;;;;0.20;0.20;;;;;;;1.97;79.80;101714.59;4995932;28;20070;-68
2023/04/05 04:53:22;;;;;;;0.30;0.30;;;;;;;1.91;79.79;101713.81;4983983;28;20037;-70
2023/04/05 04:55:48;;;;;;;1.65;0.68;;;;;;;1.81;79.38;101722.63;4982727;28;20046;-70
2023/04/05 04:58:14;;;;;;;0.63;0.50;;;;;;;1.75;79.81;101721.03;4983979;28;20049;-69
2023/04/05 05:00:47;;;;;;;0.40;0.40;;;;;;;1.82;80.32;101712.78;4994643;28;20053;-68
2023/04/05 05:03:12;;;;;;;0.40;0.40;;;;;;;1.77;80.73;101715.47;4989246;28;20046;-68
2023/04/05 05:05:45;;;;;;;0.40;0.40;;;;;;;1.64;81.38;101716.03;4988784;28;20022;-68
2023/04/05 05:08:11;;;;;;;0.47;0.43;;;;;;;1.65;81.79;101710.44;4988549;28;20513;-68
2023/04/05 05:10:39;;;;;;;1.05;0.95;;;;;;;1.75;81.28;101709.63;4999055;28;20414;-67
2023/04/05 05:13:05;;;;;;;0.95;0.80;;;;;;;1.64;81.41;101711.53;4988011;28;20037;-66
2023/04/05 05:15:30;;;;;;;0.93;0.90;;;;;;;1.65;82.34;101713.09;4987362;28;20081;-67
2023/04/05 05:17:57;;;;;;;0.60;0.60;;;;;;;1.67;81.72;101708.31;4987769;28;20033;-66
2023/04/05 05:20:24;;;;;;;0.63;0.63;;;;;;;2.01;80.74;101716.47;4982724;28;20593;-69
2023/04/05 05:22:50;;;;;;;0.95;0.95;;;;;;;2.26;80.26;101710.25;4985500;28;20042;-68
2023/04/05 05:25:15;;;;;;;0.32;0.32;;;;;;;2.19;79.49;101717.72;4985071;28;20038;-70
2023/04/05 05:27:41;;;;;;;0.60;0.57;;;;;;;2.09;79.83;101718.53;4992272;28;20073;-68
2023/04/05 05:30:07;;;;;;;1.73;1.00;;;;;;;2.00;79.95;101706.09;4992279;28;20030;-69
2023/04/05 05:32:33;;;;;;;2.28;2.05;;;;;;;2.05;80.54;101709.53;4991340;28;20026;-69
2023/04/05 05:34:58;;;;;;;1.45;1.35;;;;;;;2.23;80.22;101705.47;4980110;28;20054;-69
2023/04/05 05:37:32;;;;;;;0.45;0.45;;;;;;;2.31;80.28;101710.19;4981113;28;20042;-72
2023/04/05 05:39:58;;;;;;;1.70;0.63;;;;;;;2.23;79.60;101703.59;4984491;28;20731;-69
2023/04/05 05:42:23;;;;;;;0.88;0.88;;;;;;;2.21;80.15;101702.28;4989098;28;20053;-69
2023/04/05 05:44:49;;;;;;;1.23;1.15;;;;;;;2.21;79.82;101710.25;4985126;28;20034;-69
2023/04/05 05:47:14;;;;;;;0.47;0.47;;;;;;;2.24;79.97;101707.88;4997279;28;20459;-68
2023/04/05 05:49:40;;;;;;;0.25;0.25;;;;;;;2.47;79.52;101706.41;4989424;28;20050;-67
2023/04/05 05:52:06;;;;;;;0.30;0.30;;;;;;;2.72;79.07;101708.91;4989275;28;20038;-70
2023/04/05 05:54:31;;;;;;;0.35;0.35;;;;;;;2.68;78.67;101707.88;4990742;28;20034;-67
2023/04/05 05:56:57;;;;;;;0.68;0.68;;;;;;;2.73;78.29;101708.63;5000316;28;20057;-67
2023/04/05 05:59:23;;;;;;;1.27;1.25;;;;;;;2.78;78.52;101702.50;4984811;28;20447;-67
2023/04/05 06:01:50;;;;;;;0.60;0.60;;;;;;;2.83;78.49;101707.75;4988027;28;20065;-69
2023/04/05 06:04:18;;;;;;;0.95;0.68;;;;;;;2.71;79.21;101709.97;4999430;28;20118;-68
2023/04/05 06:06:45;;;;;;;0.55;0.55;;;;;;;2.85;79.54;101708.28;4982852;28;20058;-68
2023/04/05 06:09:11;;;;;;;3.63;0.80;;;;;;;2.84;79.81;101709.38;5005289;28;20034;-69
2023/04/05 06:11:36;;;;;;;1.42;1.33;;;;;;;2.68;81.35;101706.03;4966880;28;20062;-67
2023/04/05 06:14:02;;;;;;;0.70;0.70;;;;;;;2.99;81.00;101717.22;4992557;28;20026;-67
2023/04/05 06:16:29;;;;;;;1.33;1.02;;;;;;;2.85;81.68;101708.28;4990804;28;20069;-68
2023/04/05 06:18:55;;;;;;;1.85;1.15;;;;;;;2.89;81.99;101704.00;4994929;28;20026;-71
2023/04/05 06:21:21;;;;;;;0.90;0.90;;;;;;;3.06;81.90;101701.75;4988451;28;20038;-67
2023/04/05 06:23:47;;;;;;;0.90;0.90;;;;;;;3.21;81.42;101703.50;4994303;28;20030;-69
2023/04/05 06:26:23;;;;;;;1.42;1.17;;;;;;;3.18;81.02;101710.16;4995081;28;20100;-67
2023/04/05 06:28:49;;;;;;;1.08;1.08;;;;;;;3.53;80.83;101706.38;4996637;28;20042;-67
2023/04/05 06:31:16;;;;;;;0.73;0.73;;;;;;;3.80;79.26;101701.31;5003574;28;20991;-67
2023/04/05 06:33:42;;;;;;;0.75;0.75;;;;;;;3.57;78.91;101716.19;4996302;28;20660;-69
2023/04/05 06:36:28;;;;;;;1.20;0.98;;;;;;;3.47;79.04;101718.94;4991311;28;20364;-68
2023/04/05 06:38:54;;;;;;;0.57;0.57;;;;;;;3.95;77.54;101708.34;4977979;28;20047;-68
2023/04/05 06:41:40;;;;;;;0.63;0.63;;;;;;;4.16;76.68;101704.34;4951693;28;20051;-70
2023/04/05 06:44:06;;;;;;;0.70;0.70;;;;;;;4.17;74.20;101708.59;4891606;29;20441;-69
2023/04/05 06:46:31;;;;;;;0.57;0.57;;;;;;;4.01;75.14;101709.84;4902774;29;20048;-67
2023/04/05 06:48:58;;;;;;;2.72;1.63;;;;;;;4.28;73.62;101713.50;4886988;29;20048;-67
2023/04/05 06:51:25;;;;;;;1.10;1.00;;;;;;;4.32;73.90;101711.06;4896611;29;20133;-68
2023/04/05 06:53:51;;;;;;;1.45;1.17;;;;;;;4.52;73.20;101710.81;4891032;29;20036;-67
2023/04/05 06:56:16;;;;;;;1.70;1.30;;;;;;;4.56;72.95;101706.47;4892660;29;20044;-70
2023/04/05 06:58:42;;;;;;;3.63;1.63;;;;;;;4.38;71.92;101712.59;4894439;29;20538;-67
2023/04/05 07:01:08;;;;;;;0.90;0.75;;;;;;;4.55;72.30;101705.69;4888651;29;20053;-68
2023/04/05 07:03:34;;;;;;;1.88;1.38;;;;;;;4.73;72.32;101704.09;4891098;29;20055;-68
2023/04/05 07:06:00;;;;;;;0.77;0.77;;;;;;;5.02;72.58;101707.38;4891584;29;20071;-68
2023/04/05 07:08:27;;;;;;;1.63;1.02;;;;;;;5.56;71.65;101700.59;4878219;29;20056;-68
2023/04/05 07:10:53;;;;;;;1.55;1.13;;;;;;;6.06;71.25;101708.47;4870926;29;20036;-68
2023/04/05 07:13:20;;;;;;;0.98;0.95;;;;;;;6.31;70.52;101707.94;4878328;29;20673;-67
2023/04/05 07:15:46;;;;;;;1.33;1.10;;;;;;;6.57;69.71;101704.72;4901667;29;20052;-68
2023/04/05 07:18:14;;;;;;;1.30;1.15;;;;;;;6.81;68.13;101714.06;4913424;29;20050;-68
2023/04/05 07:20:40;;;;;;;0.85;0.85;;;;;;;7.04;67.11;101714.88;4940458;28;20058;-68
2023/04/05 07:23:06;;;;;;;2.30;1.02;;;;;;;7.23;66.03;101704.75;5005928;28;20038;-68
2023/04/05 07:25:32;;;;;;;1.33;1.00;;;;;;;7.72;65.85;101712.59;5006540;28;20041;-69
2023/04/05 07:27:57;;;;;;;1.25;1.10;;;;;;;8.06;63.57;101710.03;4990586;28;20115;-68
2023/04/05 07:30:24;;;;;;;2.08;1.13;;;;;;;8.23;60.53;101704.69;5008080;28;20041;-68
2023/04/05 07:32:50;;;;;;;1.38;1.23;;;;;;;8.23;58.72;101708.50;4995329;28;20042;-69
2023/04/05 07:35:15;;;;;;;1.05;0.70;;;;;;;8.34;57.94;101704.44;4996736;28;20371;-68
2023/04/05 07:37:41;;;;;;;1.20;1.08;;;;;;;8.46;58.01;101705.38;5002698;28;20149;-68
2023/04/05 07:40:07;;;;;;;1.20;0.93;;;;;;;8.65;57.53;101703.19;5010021;28;20397;-68
2023/04/05 07:42:32;;;;;;;2.50;1.00;;;;;;;9.01;55.92;101713.63;4995421;28;20146;-69
2023/04/05 07:44:58;;;;;;;0.80;0.80;;;;;;;9.01;53.98;101700.97;4992111;28;20129;-69
2023/04/05 07:47:23;;;;;;;0.80;0.70;;;;;;;9.15;53.46;101698.13;4998874;28;20077;-69
2023/04/05 07:49:49;;;;;;;0.60;0.50;;;;;;;9.44;52.93;101697.41;4989190;28;20042;-69
2023/04/05 07:52:17;;;;;;;0.80;0.70;;;;;;;9.71;50.29;101699.69;5006580;28;20057;-68
2023/04/05 07:54:46;;;;;;;0.82;0.55;;;;;;;9.87;48.66;101708.81;4982377;28;20061;-70
2023/04/05 07:57:18;;;;;;;0.65;0.50;;;;;;;9.95;48.89;101707.97;4988509;28;20113;-70
2023/04/05 07:59:44;;;;;;;0.50;0.50;;;;;;;10.19;48.60;101688.56;4990092;28;20478;-70
2023/04/05 08:02:10;;;;;;;3.45;0.60;;;;;;;10.39;47.69;101698.56;4983907;28;20038;-69
2023/04/05 08:04:36;;;;;;;2.30;0.65;;;;;;;10.48;47.44;101702.78;4984599;28;20056;-69
2023/04/05 08:07:01;;;;;;;0.63;0.55;;;;;;;10.62;44.83;101691.75;4989878;28;20042;-68
2023/04/05 08:09:27;;;;;;;0.60;0.50;;;;;;;10.55;46.70;101692.25;4987921;28;20060;-68
2023/04/05 08:11:56;;;;;;;3.30;0.70;;;;;;;10.80;47.05;101693.94;4990216;28;20053;-67
2023/04/05 08:14:22;;;;;;;0.88;0.82;;;;;;;11.09;45.47;101687.66;4991028;28;20023;-69
2023/04/05 08:16:49;;;;;;;0.40;0.40;;;;;;;11.39;44.06;101691.81;4985693;28;20027;-69
2023/04/05 08:19:18;;;;;;;1.15;0.40;;;;;;;11.39;44.36;101686.41;4984587;28;20037;-68
2023/04/05 08:21:43;;;;;;;0.55;0.30;;;;;;;11.58;43.41;101691.25;4985545;28;20233;-69
2023/04/05 08:24:09;;;;;;;0.75;0.60;;;;;;;11.74;43.60;101692.22;4988782;28;20133;-70
2023/04/05 08:26:34;;;;;;;1.70;0.52;;;;;;;12.17;41.96;101695.13;4990788;28;20046;-69
2023/04/05 08:29:00;;;;;;;0.98;0.68;;;;;;;12.16;41.31;101706.25;4986411;28;20038;-70
2023/04/05 08:31:25;;;;;;;0.20;0.20;;;;;;;12.18;40.35;101693.19;4989433;28;20034;-70
2023/04/05 08:33:51;;;;;;;0.20;0.20;;;;;;;12.42;40.26;101695.88;4987499;28;20039;-69
2023/04/05 08:36:17;;;;;;;0.30;0.20;;;;;;;12.59;40.38;101691.00;4992655;28;20102;-69
2023/04/05 08:38:42;;;;;;;0.20;0.20;;;;;;;12.63;40.19;101694.59;5005896;28;20019;-68
2023/04/05 08:41:14;;;;;;;0.90;0.50;;;;;;;13.16;37.81;101700.72;4987639;28;20042;-69
2023/04/05 08:44:02;;;;;;;0.40;0.30;;;;;;;13.10;38.83;101685.88;4990256;28;20041;-70
2023/04/05 08:46:33;;;;;;;0.45;0.20;;;;;;;13.02;38.94;101686.78;4987739;28;20031;-69
2023/04/05 08:49:03;;;;;;;1.38;0.80;;;;;;;13.11;39.22;101682.81;4989510;28;20050;-69
2023/04/05 08:51:28;;;;;;;0.38;0.30;;;;;;;13.22;38.94;101685.81;4989803;28;20038;-69
2023/04/05 08:53:54;;;;;;;0.88;0.40;;;;;;;13.33;38.89;101684.16;4993523;28;20490;-69
2023/04/05 08:56:24;;;;;;;0.38;0.38;;;;;;;13.49;38.65;101684.97;4996795;28;20442;-68
2023/04/05 08:59:03;;;;;;;0.30;0.20;;;;;;;13.58;39.06;101682.88;4983438;28;20049;-69
2023/04/05 09:01:30;;;;;;;0.45;0.38;;;;;;;13.69;39.21;101678.50;4984667;28;20312;-70
2023/04/05 09:04:00;;;;;;;0.65;0.43;;;;;;;14.12;38.49;101683.78;4992511;28;20044;-70
2023/04/05 09:06:27;;;;;;;1.38;0.20;;;;;;;14.14;39.67;101678.78;4989816;28;20484;-69
2023/04/05 09:08:57;;;;;;;0.80;0.50;;;;;;;14.17;38.66;101680.78;4991211;28;20042;-68
2023/04/05 09:11:24;;;;;;;0.50;0.35;;;;;;;14.24;38.83;101675.53;4985113;28;20031;-70
2023/04/05 09:13:50;;;;;;;0.55;0.35;;;;;;;14.28;38.70;101671.00;4989133;28;20511;-70
2023/04/05 09:16:16;;;;;;;0.68;0.47;;;;;;;14.30;38.70;101676.06;4987835;28;20035;-70
2023/04/05 09:18:42;;;;;;;0.50;0.40;;;;;;;14.55;37.68;101668.47;4984046;28;20041;-70
2023/04/05 09:21:08;;;;;;;1.33;0.30;;;;;;;14.80;38.27;101675.97;4987646;28;20186;-70
2023/04/05 09:23:36;;;;;;;1.80;0.85;;;;;;;14.95;37.20;101680.50;4999946;28;20480;-70
2023/04/05 09:26:18;;;;;;;0.60;0.40;;;;;;;14.91;36.58;101670.72;4992629;28;20089;-71
2023/04/05 09:28:43;;;;;;;0.75;0.40;;;;;;;15.10;37.29;101667.97;4992931;28;20034;-71
2023/04/05 09:31:09;;;;;;;2.05;0.45;;;;;;;14.80;36.96;101669.75;4996345;28;20604;-71
2023/04/05 09:33:35;;;;;;;2.35;0.65;;;;;;;14.48;36.85;101673.75;4987245;28;20022;-70
2023/04/05 09:36:01;;;;;;;0.52;0.30;;;;;;;14.72;38.29;101674.25;5009051;28;20039;-68
2023/04/05 09:38:44;;;;;;;0.30;0.20;;;;;;;14.91;37.48;101681.56;4993329;28;20031;-68
2023/04/05 09:41:10;;;;;;;0.47;0.38;;;;;;;15.23;36.95;101666.69;4986156;28;20092;-70
2023/04/05 09:43:41;;;;;;;0.45;0.45;;;;;;;15.23;37.65;101664.72;4993529;28;20058;-69
2023/04/05 09:46:27;;;;;;;0.90;0.38;;;;;;;15.71;37.72;101663.25;4988368;28;20117;-69
2023/04/05 09:48:52;;;;;;;0.93;0.47;;;;;;;15.79;37.81;101673.09;4987479;28;20038;-70
2023/04/05 09:51:18;;;;;;;0.40;0.38;;;;;;;15.87;37.23;101657.69;4993907;28;20502;-70
2023/04/05 09:54:07;;;;;;;0.30;0.30;;;;;;;15.94;36.15;101664.00;4983952;28;20038;-69
2023/04/05 09:56:37;;;;;;;1.73;0.45;;;;;;;16.09;37.06;101657.63;4981104;28;20034;-69
2023/04/05 09:59:13;;;;;;;1.05;0.60;;;;;;;15.97;35.94;101659.75;4984404;28;20046;-69
2023/04/05 10:01:42;;;;;;;1.15;0.50;;;;;;;15.78;35.60;101652.50;5005239;28;20065;-70
2023/04/05 10:04:08;;;;;;;1.63;0.88;;;;;;;15.85;35.82;101657.25;4991276;28;20033;-70
2023/04/05 10:06:41;;;;;;;1.05;0.60;;;;;;;16.03;36.83;101650.94;4986352;28;20042;-70
2023/04/05 10:09:08;;;;;;;0.57;0.30;;;;;;;16.14;36.27;101642.94;4984245;28;20034;-70
2023/04/05 10:11:36;;;;;;;0.90;0.47;;;;;;;16.21;37.00;101653.91;4985798;28;20520;-69
2023/04/05 10:14:05;;;;;;;0.38;0.35;;;;;;;16.48;36.49;101651.91;4984856;28;20097;-70
2023/04/05 10:16:35;;;;;;;1.40;0.73;;;;;;;16.49;35.39;101634.47;4984373;28;20038;-70
2023/04/05 10:19:04;;;;;;;1.35;0.60;;;;;;;16.08;35.67;101637.03;4994645;28;20030;-69
2023/04/05 10:21:34;;;;;;;0.40;0.32;;;;;;;16.23;35.48;101636.06;4991275;28;20097;-69
2023/04/05 10:24:14;;;;;;;1.40;0.55;;;;;;;15.97;36.21;101625.22;4992710;28;20069;-69
2023/04/05 10:27:05;;;;;;;1.98;0.70;;;;;;;15.86;35.86;101634.38;5006822;28;20113;-68
2023/04/05 10:29:52;;;;;;;0.93;0.60;;;;;;;15.30;35.69;101613.31;4964088;28;20125;-70
2023/04/05 10:32:28;;;;;;;0.85;0.60;;;;;;;15.34;37.08;101608.72;4969284;28;20484;-70
2023/04/05 10:35:04;;;;;;;0.55;0.30;;;;;;;15.42;37.58;101609.66;4968953;28;20566;-70
2023/04/05 10:37:41;;;;;;;0.93;0.50;;;;;;;15.47;38.21;101622.91;4968845;28;20047;-69
2023/04/05 10:40:11;;;;;;;0.70;0.32;;;;;;;15.36;37.35;101616.50;4967819;28;20077;-69
2023/04/05 10:42:45;;;;;;;0.60;0.30;;;;;;;15.26;37.40;101607.03;4943540;28;20042;-70
2023/04/05 10:45:14;;;;;;;1.05;0.20;;;;;;;15.02;37.57;101599.25;4966394;28;20050;-68
2023/04/05 10:47:48;;;;;;;0.63;0.30;;;;;;;14.90;38.47;101609.50;4942840;28;20105;-68
2023/04/05 10:50:20;;;;;;;0.60;0.30;;;;;;;14.68;38.63;101604.81;4962645;28;20594;-69
2023/04/05 10:52:47;;;;;;;1.00;0.38;;;;;;;14.44;38.42;101601.25;4968621;28;20050;-69
2023/04/05 10:55:14;;;;;;;1.05;0.50;;;;;;;14.41;38.60;101590.34;4965962;28;20042;-69
2023/04/05 10:57:41;;;;;;;0.40;0.30;;;;;;;14.38;38.52;101593.78;4966068;28;20039;-69
2023/04/05 11:00:09;;;;;;;0.60;0.60;;;;;;;14.39;38.65;101590.72;4965809;28;20055;-70
2023/04/05 11:02:35;;;;;;;0.80;0.50;;;;;;;14.26;37.85;101591.97;4968406;28;20030;-69
2023/04/05 11:05:04;;;;;;;0.40;0.38;;;;;;;13.76;37.73;101583.91;4960329;28;20060;-69
2023/04/05 11:07:43;;;;;;;0.25;0.25;;;;;;;13.67;38.91;101585.22;4987863;28;20135;-70
2023/04/05 11:10:17;;;;;;;0.20;0.20;;;;;;;13.80;38.12;101576.63;4992614;28;20290;-68
2023/04/05 11:12:45;;;;;;;0.63;0.63;;;;;;;13.91;37.97;101585.00;4987773;28;20049;-69
2023/04/05 11:15:26;;;;;;;0.30;0.30;;;;;;;13.97;38.56;101578.97;5007356;28;20029;-68
2023/04/05 11:18:02;;;;;;;0.57;0.50;;;;;;;14.10;39.48;101571.47;4984614;28;20487;-69
2023/04/05 11:20:45;;;;;;;0.63;0.28;;;;;;;14.38;38.96;101572.09;4985357;28;20034;-70
2023/04/05 11:23:12;;;;;;;0.30;0.10;;;;;;;14.92;38.93;101574.66;4981512;28;20040;-68
2023/04/05 11:25:40;;;;;;;0.20;0.20;;;;;;;15.50;37.75;101578.75;4979675;28;20042;-69
2023/04/05 11:28:07;;;;;;;0.20;0.20;;;;;;;15.99;36.21;101576.72;4987246;28;20023;-68
2023/04/05 11:30:50;;;;;;;0.20;0.20;;;;;;;16.44;36.65;101562.13;4985648;28;20038;-69
2023/04/05 11:33:53;;;;;;;0.20;0.20;;;;;;;16.57;34.94;101559.97;4993206;28;20029;-69
2023/04/05 11:36:40;;;;;;;0.40;0.25;;;;;;;16.56;34.56;101563.84;5004133;28;20034;-69
2023/04/05 11:39:18;;;;;;;0.57;0.40;;;;;;;16.32;35.43;101558.91;4999543;28;20038;-69
2023/04/05 11:41:52;;;;;;;0.77;0.30;;;;;;;16.11;36.27;101549.31;4993726;28;20057;-69
2023/04/05 11:44:18;;;;;;;0.40;0.30;;;;;;;15.93;36.66;101551.03;4990157;28;20038;-69